Terminal Aerodrome Forecast
Issued by NWS North Platte, NE

Home | Current Version | Previous Version | Text Only | Print | Product List | Glossary Off
Versions: 1 2 3 4 5 6 7 8 9 10 11 12 13 14 15 16 17 18 19 20

000
FTUS43 KLBF 160400 AAB
TAFVTN
TAF AMD
KVTN 160419Z 1604/1624 14017G25KT P6SM BKN080
      TEMPO 1605/1608 4SM SHRA OVC021
     FM161000 10007KT P6SM BKN007 OVC035
     FM161900 04012G20KT 4SM -RA OVC007=

USA.gov is the U.S. government's official web portal to all federal, state and local government web resources and services.